createdAt,value
2019-02-28T00:00:49.778Z,912.54
2019-02-28T00:01:49.754Z,912.58
2019-02-28T00:02:49.701Z,912.54
2019-02-28T00:03:49.673Z,912.55
2019-02-28T00:04:49.791Z,912.53
2019-02-28T00:05:49.733Z,912.56
2019-02-28T00:06:49.603Z,912.62
2019-02-28T00:07:49.775Z,912.65
2019-02-28T00:08:51.050Z,912.72
2019-02-28T00:09:49.509Z,912.74
2019-02-28T00:10:49.619Z,912.79
2019-02-28T00:11:49.440Z,912.81
2019-02-28T00:12:49.400Z,912.81
2019-02-28T00:13:49.345Z,912.85
2019-02-28T00:14:49.328Z,912.89
2019-02-28T00:15:49.296Z,912.94
2019-02-28T00:16:49.425Z,912.98
2019-02-28T00:17:49.255Z,912.97
2019-02-28T00:18:49.837Z,912.99
2019-02-28T00:19:49.275Z,912.96
2019-02-28T00:20:49.139Z,913.00
2019-02-28T00:21:49.117Z,913.00
2019-02-28T00:22:49.537Z,913.00
2019-02-28T00:23:49.059Z,913.04
2019-02-28T00:24:49.010Z,913.01
2019-02-28T00:25:48.981Z,913.02
2019-02-28T00:26:49.346Z,913.05
2019-02-28T00:27:48.936Z,913.04
2019-02-28T00:28:48.885Z,913.09
2019-02-28T00:29:48.881Z,913.11
2019-02-28T00:30:48.834Z,913.09
2019-02-28T00:31:49.902Z,913.11
2019-02-28T00:32:48.751Z,913.10
2019-02-28T00:33:48.717Z,913.14
2019-02-28T00:34:48.683Z,913.17
2019-02-28T00:35:48.668Z,913.17
2019-02-28T00:36:50.457Z,913.17
2019-02-28T00:37:48.607Z,913.20
2019-02-28T00:38:48.587Z,913.22
2019-02-28T00:39:48.550Z,913.22
2019-02-28T00:40:48.512Z,913.25
2019-02-28T00:41:48.479Z,913.25
2019-02-28T00:42:50.881Z,913.28
2019-02-28T00:43:48.431Z,913.27
2019-02-28T00:44:48.407Z,913.31
2019-02-28T00:45:48.362Z,913.30
2019-02-28T00:46:48.507Z,913.27
2019-02-28T00:47:48.400Z,913.28
2019-02-28T00:48:48.605Z,913.27
2019-02-28T00:49:48.257Z,913.28
2019-02-28T00:50:48.212Z,913.26
2019-02-28T00:51:48.179Z,913.23
2019-02-28T00:52:48.243Z,913.28
2019-02-28T00:53:48.100Z,913.30
2019-02-28T00:54:48.202Z,913.32
2019-02-28T00:55:48.026Z,913.34
2019-02-28T00:56:51.422Z,913.35
2019-02-28T00:57:47.968Z,913.38
2019-02-28T00:58:47.949Z,913.40
2019-02-28T00:59:49.465Z,913.39
2019-02-28T01:00:48.113Z,913.37
2019-02-28T01:01:47.889Z,913.38
2019-02-28T01:02:52.160Z,913.35
2019-02-28T01:03:47.791Z,913.33
2019-02-28T01:04:47.906Z,913.34
2019-02-28T01:05:47.735Z,913.35
2019-02-28T01:06:47.728Z,913.35
2019-02-28T01:07:48.934Z,913.36
2019-02-28T01:08:47.689Z,913.33
2019-02-28T01:09:47.592Z,913.32
2019-02-28T01:10:47.593Z,913.31
2019-02-28T01:11:47.532Z,913.31
2019-02-28T01:12:50.300Z,913.33
2019-02-28T01:13:47.477Z,913.31
2019-02-28T01:14:47.457Z,913.38
2019-02-28T01:15:47.763Z,913.43
2019-02-28T01:16:50.167Z,913.46
2019-02-28T01:17:47.350Z,913.44
2019-02-28T01:18:47.356Z,913.48
2019-02-28T01:19:47.330Z,913.48
2019-02-28T01:20:49.965Z,913.46
2019-02-28T01:21:47.242Z,913.49
2019-02-28T01:22:47.165Z,913.48
2019-02-28T01:23:47.196Z,913.48
2019-02-28T01:24:47.130Z,913.49
2019-02-28T01:25:47.092Z,913.48
2019-02-28T01:26:47.414Z,913.53
2019-02-28T01:27:47.034Z,913.51
2019-02-28T01:28:47.001Z,913.55
2019-02-28T01:29:46.951Z,913.54
2019-02-28T01:30:46.960Z,913.54
2019-02-28T01:31:46.903Z,913.55
2019-02-28T01:32:49.814Z,913.55
2019-02-28T01:33:46.850Z,913.55
2019-02-28T01:34:46.800Z,913.55
2019-02-28T01:35:46.792Z,913.53
2019-02-28T01:36:48.834Z,913.50
2019-02-28T01:37:46.696Z,913.51
2019-02-28T01:38:46.680Z,913.49
2019-02-28T01:39:46.726Z,913.47
2019-02-28T01:40:46.680Z,913.45
2019-02-28T01:41:46.567Z,913.50
2019-02-28T01:42:46.703Z,913.45
2019-02-28T01:43:46.502Z,913.45
2019-02-28T01:44:46.499Z,913.49
2019-02-28T01:45:46.459Z,913.46
2019-02-28T01:46:48.458Z,913.49
2019-02-28T01:47:46.373Z,913.47
2019-02-28T01:48:46.760Z,913.49
2019-02-28T01:49:46.334Z,913.47
2019-02-28T01:50:46.294Z,913.48
2019-02-28T01:51:46.269Z,913.50
2019-02-28T01:52:46.293Z,913.50
2019-02-28T01:53:46.233Z,913.48
2019-02-28T01:54:46.326Z,913.49
2019-02-28T01:55:46.131Z,913.49
2019-02-28T01:56:46.141Z,913.45
2019-02-28T01:57:46.061Z,913.46
2019-02-28T01:58:47.659Z,913.42
2019-02-28T01:59:46.051Z,913.42
2019-02-28T02:00:46.013Z,913.41
2019-02-28T02:01:45.938Z,913.41
2019-02-28T02:02:45.967Z,913.41
2019-02-28T02:03:45.896Z,913.40
2019-02-28T02:04:46.632Z,913.38
2019-02-28T02:05:48.319Z,913.38
2019-02-28T02:06:45.785Z,913.37
2019-02-28T02:07:45.796Z,913.34
2019-02-28T02:08:45.770Z,913.35
2019-02-28T02:09:46.269Z,913.34
2019-02-28T02:10:45.670Z,913.29
2019-02-28T02:11:45.670Z,913.26
2019-02-28T02:12:45.596Z,913.28
2019-02-28T02:13:45.545Z,913.29
2019-02-28T02:14:45.794Z,913.27
2019-02-28T02:15:45.660Z,913.27
2019-02-28T02:16:45.477Z,913.25
2019-02-28T02:17:45.441Z,913.26
2019-02-28T02:18:45.408Z,913.27
2019-02-28T02:19:45.374Z,913.26
2019-02-28T02:20:45.347Z,913.27
2019-02-28T02:21:45.472Z,913.29
2019-02-28T02:22:45.458Z,913.27
2019-02-28T02:23:45.238Z,913.25
2019-02-28T02:24:45.212Z,913.23
2019-02-28T02:25:45.201Z,913.21
2019-02-28T02:26:45.840Z,913.20
2019-02-28T02:27:45.111Z,913.18
2019-02-28T02:28:45.093Z,913.16
2019-02-28T02:29:45.047Z,913.16
2019-02-28T02:30:50.434Z,913.14
2019-02-28T02:31:45.000Z,913.11
2019-02-28T02:32:44.956Z,913.15
2019-02-28T02:33:50.904Z,913.15
2019-02-28T02:34:44.897Z,913.15
2019-02-28T02:35:44.871Z,913.10
2019-02-28T02:36:44.832Z,913.08
2019-02-28T02:37:44.777Z,913.08
2019-02-28T02:38:44.771Z,913.05
2019-02-28T02:39:44.729Z,913.07
2019-02-28T02:40:44.702Z,913.05
2019-02-28T02:41:44.695Z,913.05
2019-02-28T02:42:48.675Z,913.08
2019-02-28T02:43:44.618Z,913.08
2019-02-28T02:44:44.558Z,913.09
2019-02-28T02:45:44.534Z,913.09
2019-02-28T02:46:44.519Z,913.10
2019-02-28T02:47:44.848Z,913.13
2019-02-28T02:48:44.442Z,913.12
2019-02-28T02:49:44.407Z,913.15
2019-02-28T02:50:44.379Z,913.14
2019-02-28T02:51:49.134Z,913.15
2019-02-28T02:52:44.336Z,913.13
2019-02-28T02:53:44.628Z,913.14
2019-02-28T02:54:44.245Z,913.14
2019-02-28T02:55:44.231Z,913.15
2019-02-28T02:56:44.230Z,913.18
2019-02-28T02:57:50.631Z,913.17
2019-02-28T02:58:44.105Z,913.21
2019-02-28T02:59:44.247Z,913.25
2019-02-28T03:00:49.306Z,913.24
2019-02-28T03:01:44.045Z,913.27
2019-02-28T03:02:44.014Z,913.28
2019-02-28T03:03:44.577Z,913.27
2019-02-28T03:04:43.931Z,913.28
2019-02-28T03:05:43.905Z,913.27
2019-02-28T03:06:45.991Z,913.27
2019-02-28T03:07:43.868Z,913.27
2019-02-28T03:08:43.810Z,913.27
2019-02-28T03:09:44.743Z,913.23
2019-02-28T03:10:43.749Z,913.22
2019-02-28T03:11:43.702Z,913.25
2019-02-28T03:12:43.667Z,913.26
2019-02-28T03:13:44.210Z,913.30
2019-02-28T03:14:43.603Z,913.31
2019-02-28T03:15:43.732Z,913.37
2019-02-28T03:16:43.564Z,913.38
2019-02-28T03:17:46.914Z,913.39
2019-02-28T03:18:43.484Z,913.43
2019-02-28T03:19:43.466Z,913.41
2019-02-28T03:20:43.424Z,913.41
2019-02-28T03:21:50.887Z,913.40
2019-02-28T03:22:43.368Z,913.35
2019-02-28T03:23:43.305Z,913.33
2019-02-28T03:24:43.319Z,913.32
2019-02-28T03:25:43.271Z,913.32
2019-02-28T03:26:43.406Z,913.31
2019-02-28T03:27:43.218Z,913.29
2019-02-28T03:28:43.158Z,913.34
2019-02-28T03:29:43.782Z,913.29
2019-02-28T03:30:43.132Z,913.28
2019-02-28T03:31:55.100Z,913.29
2019-02-28T03:32:43.120Z,913.30
2019-02-28T03:33:43.009Z,913.31
2019-02-28T03:34:55.335Z,913.31
2019-02-28T03:35:44.163Z,913.32
2019-02-28T03:37:42.863Z,913.32
2019-02-28T03:38:48.194Z,913.32
2019-02-28T03:39:42.823Z,913.33
2019-02-28T03:40:42.786Z,913.33
2019-02-28T03:41:42.750Z,913.26
2019-02-28T03:42:42.721Z,913.28
2019-02-28T03:43:43.917Z,913.27
2019-02-28T03:44:42.651Z,913.28
2019-02-28T03:45:42.650Z,913.23
2019-02-28T03:46:46.398Z,913.23
2019-02-28T03:47:42.864Z,913.24
2019-02-28T03:48:42.533Z,913.23
2019-02-28T03:49:48.545Z,913.24
2019-02-28T03:50:42.472Z,913.20
2019-02-28T03:51:42.429Z,913.21
2019-02-28T03:52:44.155Z,913.20
2019-02-28T03:53:42.529Z,913.18
2019-02-28T03:54:42.330Z,913.17
2019-02-28T03:55:42.300Z,913.14
2019-02-28T03:56:42.255Z,913.13
2019-02-28T03:57:42.242Z,913.06
2019-02-28T03:58:43.144Z,913.09
2019-02-28T03:59:42.172Z,913.09
2019-02-28T04:00:42.148Z,913.11
2019-02-28T04:01:45.647Z,913.08
2019-02-28T04:02:42.070Z,913.13
2019-02-28T04:03:42.030Z,913.12
2019-02-28T04:04:48.431Z,913.17
2019-02-28T04:05:41.960Z,913.16
2019-02-28T04:06:41.943Z,913.18
2019-02-28T04:07:41.919Z,913.16
2019-02-28T04:08:41.878Z,913.18
2019-02-28T04:09:44.246Z,913.18
2019-02-28T04:10:41.805Z,913.16
2019-02-28T04:11:41.777Z,913.16
2019-02-28T04:12:45.574Z,913.16
2019-02-28T04:13:41.729Z,913.14
2019-02-28T04:14:41.687Z,913.10
2019-02-28T04:15:47.648Z,913.09
2019-02-28T04:16:41.629Z,913.10
2019-02-28T04:17:41.599Z,913.07
2019-02-28T04:18:46.191Z,913.14
2019-02-28T04:19:41.534Z,913.15
2019-02-28T04:20:41.504Z,913.14
2019-02-28T04:21:46.192Z,913.12
2019-02-28T04:22:41.429Z,913.14
2019-02-28T04:23:41.402Z,913.11
2019-02-28T04:24:41.364Z,913.08
2019-02-28T04:25:41.342Z,913.06
2019-02-28T04:26:41.317Z,913.09
2019-02-28T04:27:41.837Z,913.04
2019-02-28T04:28:41.242Z,913.07
2019-02-28T04:29:41.205Z,913.05
2019-02-28T04:30:43.844Z,913.02
2019-02-28T04:31:41.142Z,912.98
2019-02-28T04:32:41.112Z,912.94
2019-02-28T04:33:41.079Z,912.91
2019-02-28T04:34:41.036Z,912.88
2019-02-28T04:35:41.005Z,912.88
2019-02-28T04:36:40.996Z,912.86
2019-02-28T04:37:44.926Z,912.83
2019-02-28T04:38:40.895Z,912.84
2019-02-28T04:39:40.967Z,912.82
2019-02-28T04:40:40.851Z,912.82
2019-02-28T04:41:40.808Z,912.78
2019-02-28T04:42:40.763Z,912.81
2019-02-28T04:43:41.644Z,912.79
2019-02-28T04:44:40.718Z,912.79
2019-02-28T04:45:40.677Z,912.83
2019-02-28T04:46:40.650Z,912.80
2019-02-28T04:47:41.435Z,912.81
2019-02-28T04:48:40.638Z,912.76
2019-02-28T04:49:40.548Z,912.76
2019-02-28T04:50:40.653Z,912.70
2019-02-28T04:51:41.126Z,912.75
2019-02-28T04:52:46.527Z,912.72
2019-02-28T04:53:40.430Z,912.71
2019-02-28T04:54:40.377Z,912.74
2019-02-28T04:55:40.356Z,912.78
2019-02-28T04:56:42.351Z,912.79
2019-02-28T04:57:40.304Z,912.85
2019-02-28T04:58:40.257Z,912.87
2019-02-28T04:59:40.229Z,912.86
2019-02-28T05:00:40.200Z,912.87
2019-02-28T05:01:40.180Z,912.84
2019-02-28T05:03:40.111Z,912.80
2019-02-28T05:04:40.052Z,912.79
2019-02-28T05:05:40.022Z,912.76
2019-02-28T05:06:40.010Z,912.78
2019-02-28T05:07:39.977Z,912.75
2019-02-28T05:08:39.944Z,912.76
2019-02-28T05:09:39.906Z,912.77
2019-02-28T05:10:39.877Z,912.78
2019-02-28T05:11:39.844Z,912.79
2019-02-28T05:12:40.842Z,912.77
2019-02-28T05:13:41.178Z,912.76
2019-02-28T05:14:39.738Z,912.73
2019-02-28T05:15:41.029Z,912.71
2019-02-28T05:16:39.666Z,912.74
2019-02-28T05:17:39.930Z,912.73
2019-02-28T05:18:39.629Z,912.75
2019-02-28T05:19:39.588Z,912.74
2019-02-28T05:20:45.109Z,912.75
2019-02-28T05:21:39.513Z,912.74
2019-02-28T05:22:39.477Z,912.75
2019-02-28T05:23:39.660Z,912.74
2019-02-28T05:24:42.519Z,912.74
2019-02-28T05:25:39.394Z,912.73
2019-02-28T05:26:39.356Z,912.76
2019-02-28T05:27:39.323Z,912.76
2019-02-28T05:28:41.203Z,912.79
2019-02-28T05:29:39.262Z,912.78
2019-02-28T05:30:39.228Z,912.80
2019-02-28T05:31:39.186Z,912.77
2019-02-28T05:32:39.164Z,912.81
2019-02-28T05:33:41.881Z,912.80
2019-02-28T05:34:39.115Z,912.78
2019-02-28T05:35:39.067Z,912.85
2019-02-28T05:36:39.036Z,912.85
2019-02-28T05:37:39.003Z,912.85
2019-02-28T05:38:38.969Z,912.80
2019-02-28T05:39:38.944Z,912.76
2019-02-28T05:40:41.414Z,912.80
2019-02-28T05:41:38.874Z,912.79
2019-02-28T05:42:38.818Z,912.84
2019-02-28T05:43:38.804Z,912.79
2019-02-28T05:44:40.311Z,912.81
2019-02-28T05:45:38.740Z,912.82
2019-02-28T05:46:38.710Z,912.79
2019-02-28T05:47:46.261Z,912.80
2019-02-28T05:48:39.403Z,912.83
2019-02-28T05:49:40.656Z,912.76
2019-02-28T05:50:38.585Z,912.78
2019-02-28T05:51:38.549Z,912.77
2019-02-28T05:52:38.512Z,912.79
2019-02-28T05:53:41.343Z,912.83
2019-02-28T05:54:38.448Z,912.76
2019-02-28T05:55:38.717Z,912.72
2019-02-28T05:56:38.398Z,912.77
2019-02-28T05:57:39.417Z,912.76
2019-02-28T05:58:38.298Z,912.77
2019-02-28T05:59:38.264Z,912.77
2019-02-28T06:00:38.233Z,912.77
2019-02-28T06:01:38.218Z,912.76
2019-02-28T06:02:38.202Z,912.75
2019-02-28T06:03:38.162Z,912.76
2019-02-28T06:04:38.128Z,912.76
2019-02-28T06:05:38.972Z,912.76
2019-02-28T06:06:38.057Z,912.78
2019-02-28T06:08:39.202Z,912.77
2019-02-28T06:09:37.942Z,912.74
2019-02-28T06:10:37.918Z,912.71
2019-02-28T06:11:37.891Z,912.68
2019-02-28T06:12:40.445Z,912.67
2019-02-28T06:13:37.825Z,912.64
2019-02-28T06:14:37.811Z,912.66
2019-02-28T06:15:37.931Z,912.60
2019-02-28T06:16:37.742Z,912.58
2019-02-28T06:17:37.714Z,912.53
2019-02-28T06:18:37.685Z,912.55
2019-02-28T06:19:40.172Z,912.52
2019-02-28T06:20:37.616Z,912.52
2019-02-28T06:21:37.589Z,912.51
2019-02-28T06:22:37.556Z,912.50
2019-02-28T06:23:40.686Z,912.46
2019-02-28T06:24:37.486Z,912.47
2019-02-28T06:25:37.457Z,912.47
2019-02-28T06:26:37.417Z,912.46
2019-02-28T06:27:41.626Z,912.49
2019-02-28T06:28:37.352Z,912.45
2019-02-28T06:29:37.581Z,912.46
2019-02-28T06:30:37.325Z,912.44
2019-02-28T06:31:37.253Z,912.41
2019-02-28T06:32:37.228Z,912.41
2019-02-28T06:33:37.214Z,912.41
2019-02-28T06:34:39.432Z,912.42
2019-02-28T06:35:37.105Z,912.46
2019-02-28T06:36:37.095Z,912.44
2019-02-28T06:37:38.364Z,912.42
2019-02-28T06:38:37.029Z,912.43
2019-02-28T06:39:37.582Z,912.40
2019-02-28T06:40:36.962Z,912.42
2019-02-28T06:41:39.838Z,912.38
2019-02-28T06:42:36.905Z,912.38
2019-02-28T06:43:36.843Z,912.40
2019-02-28T06:44:36.817Z,912.35
2019-02-28T06:45:37.719Z,912.39
2019-02-28T06:46:39.823Z,912.39
2019-02-28T06:47:36.732Z,912.40
2019-02-28T06:48:36.683Z,912.37
2019-02-28T06:49:40.970Z,912.37
2019-02-28T06:50:36.649Z,912.36
2019-02-28T06:51:36.602Z,912.36
2019-02-28T06:52:36.547Z,912.32
2019-02-28T06:53:36.537Z,912.34
2019-02-28T06:54:39.235Z,912.36
2019-02-28T06:55:36.457Z,912.33
2019-02-28T06:56:36.428Z,912.34
2019-02-28T06:57:36.398Z,912.29
2019-02-28T06:58:36.375Z,912.32
2019-02-28T06:59:38.918Z,912.30
2019-02-28T07:00:36.306Z,912.28
2019-02-28T07:01:36.346Z,912.26
2019-02-28T07:02:36.245Z,912.22
2019-02-28T07:03:39.003Z,912.20
2019-02-28T07:04:36.178Z,912.18
2019-02-28T07:05:36.151Z,912.18
2019-02-28T07:06:36.610Z,912.19
2019-02-28T07:07:36.094Z,912.17
2019-02-28T07:08:36.049Z,912.20
2019-02-28T07:09:36.454Z,912.22
2019-02-28T07:10:35.972Z,912.26
2019-02-28T07:11:35.942Z,912.22
2019-02-28T07:12:35.912Z,912.25
2019-02-28T07:13:38.986Z,912.26
2019-02-28T07:14:35.831Z,912.24
2019-02-28T07:15:35.851Z,912.24
2019-02-28T07:16:37.769Z,912.29
2019-02-28T07:17:35.755Z,912.31
2019-02-28T07:18:35.703Z,912.32
2019-02-28T07:19:35.938Z,912.29
2019-02-28T07:20:36.117Z,912.35
2019-02-28T07:21:35.622Z,912.34
2019-02-28T07:22:35.622Z,912.38
2019-02-28T07:23:35.581Z,912.35
2019-02-28T07:24:37.600Z,912.41
2019-02-28T07:25:35.635Z,912.40
2019-02-28T07:26:35.460Z,912.39
2019-02-28T07:27:35.430Z,912.40
2019-02-28T07:28:37.480Z,912.44
2019-02-28T07:29:35.353Z,912.44
2019-02-28T07:30:35.317Z,912.43
2019-02-28T07:31:35.296Z,912.42
2019-02-28T07:32:35.275Z,912.43
2019-02-28T07:33:35.231Z,912.45
2019-02-28T07:34:35.189Z,912.46
2019-02-28T07:35:36.819Z,912.48
2019-02-28T07:36:35.133Z,912.49
2019-02-28T07:37:35.094Z,912.51
2019-02-28T07:38:35.066Z,912.48
2019-02-28T07:39:36.532Z,912.53
2019-02-28T07:40:35.005Z,912.54
2019-02-28T07:41:34.958Z,912.57
2019-02-28T07:42:37.580Z,912.58
2019-02-28T07:43:34.910Z,912.58
2019-02-28T07:44:34.863Z,912.58
2019-02-28T07:45:34.821Z,912.61
2019-02-28T07:46:34.805Z,912.60
2019-02-28T07:47:34.766Z,912.59
2019-02-28T07:48:34.869Z,912.62
2019-02-28T07:49:36.781Z,912.66
2019-02-28T07:50:34.649Z,912.62
2019-02-28T07:51:34.795Z,912.61
2019-02-28T07:52:34.605Z,912.62
2019-02-28T07:53:34.575Z,912.62
2019-02-28T07:54:34.551Z,912.61
2019-02-28T07:55:34.517Z,912.63
2019-02-28T07:56:34.492Z,912.62
2019-02-28T07:57:34.446Z,912.59
2019-02-28T07:58:34.399Z,912.59
2019-02-28T07:59:37.639Z,912.61
2019-02-28T08:00:34.343Z,912.64
2019-02-28T08:01:34.314Z,912.66
2019-02-28T08:02:35.650Z,912.63
2019-02-28T08:03:34.246Z,912.63
2019-02-28T08:04:34.204Z,912.64
2019-02-28T08:05:34.186Z,912.63
2019-02-28T08:06:38.853Z,912.65
2019-02-28T08:07:34.109Z,912.65
2019-02-28T08:08:34.083Z,912.65
2019-02-28T08:09:36.735Z,912.63
2019-02-28T08:10:34.018Z,912.63
2019-02-28T08:11:33.999Z,912.64
2019-02-28T08:12:33.941Z,912.63
2019-02-28T08:13:34.614Z,912.60
2019-02-28T08:14:33.874Z,912.62
2019-02-28T08:15:33.853Z,912.63
2019-02-28T08:16:34.063Z,912.63
2019-02-28T08:17:35.339Z,912.61
2019-02-28T08:18:33.743Z,912.60
2019-02-28T08:19:33.703Z,912.60
2019-02-28T08:20:33.852Z,912.58
2019-02-28T08:21:33.647Z,912.61
2019-02-28T08:22:33.606Z,912.59
2019-02-28T08:23:33.589Z,912.61
2019-02-28T08:24:35.802Z,912.62
2019-02-28T08:25:33.528Z,912.64
2019-02-28T08:26:33.469Z,912.68
2019-02-28T08:27:33.459Z,912.70
2019-02-28T08:28:36.736Z,912.70
2019-02-28T08:29:33.393Z,912.74
2019-02-28T08:30:33.357Z,912.81
2019-02-28T08:31:33.314Z,912.81
2019-02-28T08:32:33.924Z,912.84
2019-02-28T08:33:33.268Z,912.86
2019-02-28T08:34:33.227Z,912.86
2019-02-28T08:35:34.685Z,912.86
2019-02-28T08:36:33.173Z,912.89
2019-02-28T08:37:33.126Z,912.90
2019-02-28T08:38:34.218Z,912.91
2019-02-28T08:39:33.070Z,912.92
2019-02-28T08:40:33.027Z,912.94
2019-02-28T08:41:32.997Z,912.97
2019-02-28T08:42:38.594Z,912.97
2019-02-28T08:43:32.921Z,912.96
2019-02-28T08:44:32.879Z,912.97
2019-02-28T08:45:33.478Z,913.00
2019-02-28T08:46:32.808Z,913.01
2019-02-28T08:47:32.805Z,912.97
2019-02-28T08:48:34.736Z,913.01
2019-02-28T08:49:32.732Z,912.98
2019-02-28T08:50:32.707Z,913.00
2019-02-28T08:51:32.707Z,913.00
2019-02-28T08:52:32.628Z,913.04
2019-02-28T08:53:32.672Z,913.02
2019-02-28T08:54:32.555Z,913.05
2019-02-28T08:55:32.522Z,913.07
2019-02-28T08:56:32.513Z,913.05
2019-02-28T08:57:32.451Z,913.07
2019-02-28T08:58:32.430Z,913.06
2019-02-28T08:59:32.381Z,913.07
2019-02-28T09:00:33.237Z,913.07
2019-02-28T09:01:32.317Z,913.08
2019-02-28T09:02:32.288Z,913.07
2019-02-28T09:03:32.247Z,913.04
2019-02-28T09:04:40.742Z,913.07
2019-02-28T09:05:32.205Z,913.08
2019-02-28T09:06:32.186Z,913.06
2019-02-28T09:07:32.139Z,913.07
2019-02-28T09:08:32.083Z,913.06
2019-02-28T09:09:34.406Z,913.05
2019-02-28T09:10:32.035Z,913.07
2019-02-28T09:11:31.995Z,913.02
2019-02-28T09:12:33.348Z,913.06
2019-02-28T09:13:31.943Z,913.02
2019-02-28T09:14:31.906Z,913.02
2019-02-28T09:15:31.856Z,913.00
2019-02-28T09:16:31.840Z,912.97
2019-02-28T09:17:31.834Z,913.01
2019-02-28T09:18:31.770Z,913.01
2019-02-28T09:19:32.501Z,913.05
2019-02-28T09:20:31.900Z,913.06
2019-02-28T09:21:31.695Z,913.07
2019-02-28T09:22:31.648Z,913.06
2019-02-28T09:23:34.527Z,913.05
2019-02-28T09:24:31.570Z,913.09
2019-02-28T09:25:31.545Z,913.08
2019-02-28T09:26:31.954Z,913.10
2019-02-28T09:27:31.478Z,913.09
2019-02-28T09:28:31.427Z,913.11
2019-02-28T09:29:31.418Z,913.12
2019-02-28T09:30:31.377Z,913.12
2019-02-28T09:31:31.321Z,913.14
2019-02-28T09:32:31.321Z,913.13
2019-02-28T09:33:31.269Z,913.12
2019-02-28T09:34:31.530Z,913.15
2019-02-28T09:35:31.272Z,913.20
2019-02-28T09:36:31.180Z,913.19
2019-02-28T09:37:31.164Z,913.19
2019-02-28T09:38:31.109Z,913.19
2019-02-28T09:39:31.112Z,913.20
2019-02-28T09:40:31.024Z,913.26
2019-02-28T09:41:31.017Z,913.24
2019-02-28T09:42:30.978Z,913.28
2019-02-28T09:43:30.968Z,913.32
2019-02-28T09:44:31.732Z,913.31
2019-02-28T09:45:30.917Z,913.31
2019-02-28T09:46:30.935Z,913.30
2019-02-28T09:47:30.805Z,913.35
2019-02-28T09:48:30.786Z,913.34
2019-02-28T09:49:30.751Z,913.36
2019-02-28T09:50:32.799Z,913.38
2019-02-28T09:51:31.986Z,913.41
2019-02-28T09:52:30.653Z,913.42
2019-02-28T09:53:30.617Z,913.45
2019-02-28T09:54:30.561Z,913.50
2019-02-28T09:55:34.282Z,913.51
2019-02-28T09:56:30.521Z,913.52
2019-02-28T09:57:30.485Z,913.56
2019-02-28T09:58:30.455Z,913.55
2019-02-28T09:59:30.398Z,913.57
2019-02-28T10:00:30.384Z,913.59
2019-02-28T10:01:30.351Z,913.59
2019-02-28T10:02:30.306Z,913.59
2019-02-28T10:03:30.269Z,913.63
2019-02-28T10:05:30.218Z,913.69
2019-02-28T10:06:30.182Z,913.76
2019-02-28T10:07:30.144Z,913.73
2019-02-28T10:08:30.099Z,913.77
2019-02-28T10:09:30.068Z,913.75
2019-02-28T10:10:30.038Z,913.76
2019-02-28T10:11:31.887Z,913.80
2019-02-28T10:12:29.984Z,913.82
2019-02-28T10:13:31.002Z,913.84
2019-02-28T10:14:29.941Z,913.83
2019-02-28T10:15:29.869Z,913.86
2019-02-28T10:16:29.858Z,913.87
2019-02-28T10:17:29.824Z,913.92
2019-02-28T10:18:29.792Z,913.89
2019-02-28T10:19:29.741Z,913.90
2019-02-28T10:20:29.714Z,913.91
2019-02-28T10:21:29.691Z,913.93
2019-02-28T10:22:29.692Z,913.96
2019-02-28T10:23:29.634Z,914.01
2019-02-28T10:25:29.571Z,914.01
2019-02-28T10:26:29.508Z,914.06
2019-02-28T10:27:29.500Z,914.04
2019-02-28T10:28:29.444Z,914.07
2019-02-28T10:29:29.423Z,914.08
2019-02-28T10:30:32.133Z,914.16
2019-02-28T10:31:36.232Z,914.06
2019-02-28T10:32:29.339Z,914.09
2019-02-28T10:33:29.298Z,914.16
2019-02-28T10:35:29.228Z,914.19
2019-02-28T10:36:29.234Z,914.22
2019-02-28T10:37:29.148Z,914.22
2019-02-28T10:38:29.497Z,914.19
2019-02-28T10:39:29.095Z,914.21
2019-02-28T10:40:29.074Z,914.28
2019-02-28T10:41:31.147Z,914.25
2019-02-28T10:42:29.008Z,914.24
2019-02-28T10:43:28.954Z,914.29
2019-02-28T10:44:30.827Z,914.26
2019-02-28T10:45:28.904Z,914.28
2019-02-28T10:46:28.872Z,914.30
2019-02-28T10:47:29.812Z,914.33
2019-02-28T10:48:28.789Z,914.34
2019-02-28T10:49:28.776Z,914.34
2019-02-28T10:50:31.988Z,914.37
2019-02-28T10:51:28.721Z,914.41
2019-02-28T10:52:30.625Z,914.39
2019-02-28T10:53:29.612Z,914.40
2019-02-28T10:54:28.610Z,914.39
2019-02-28T10:55:28.591Z,914.42
2019-02-28T10:56:31.715Z,914.38
2019-02-28T10:57:28.521Z,914.40
2019-02-28T10:58:28.491Z,914.40
2019-02-28T10:59:28.436Z,914.42
2019-02-28T11:00:29.492Z,914.37
2019-02-28T11:01:28.390Z,914.38
2019-02-28T11:02:28.367Z,914.36
2019-02-28T11:03:31.832Z,914.33
2019-02-28T11:04:30.142Z,914.36
2019-02-28T11:05:28.255Z,914.38
2019-02-28T11:06:28.876Z,914.38
2019-02-28T11:08:28.236Z,914.41
2019-02-28T11:09:28.116Z,914.44
2019-02-28T11:10:28.902Z,914.44
2019-02-28T11:11:28.064Z,914.46
2019-02-28T11:13:28.503Z,914.48
2019-02-28T11:14:27.958Z,914.49
2019-02-28T11:15:27.958Z,914.48
2019-02-28T11:16:27.896Z,914.47
2019-02-28T11:17:30.399Z,914.48
2019-02-28T11:18:29.065Z,914.44
2019-02-28T11:19:27.911Z,914.47
2019-02-28T11:20:27.787Z,914.44
2019-02-28T11:21:29.888Z,914.44
2019-02-28T11:22:27.728Z,914.45
2019-02-28T11:23:27.711Z,914.46
2019-02-28T11:24:27.666Z,914.46
2019-02-28T11:25:27.618Z,914.46
2019-02-28T11:26:27.581Z,914.47
2019-02-28T11:27:27.556Z,914.45
2019-02-28T11:28:28.269Z,914.48
2019-02-28T11:29:27.629Z,914.50
2019-02-28T11:30:27.483Z,914.48
2019-02-28T11:31:27.457Z,914.49
2019-02-28T11:32:29.389Z,914.52
2019-02-28T11:33:27.395Z,914.51
2019-02-28T11:34:27.343Z,914.53
2019-02-28T11:35:27.320Z,914.59
2019-02-28T11:36:27.308Z,914.54
2019-02-28T11:37:27.269Z,914.59
2019-02-28T11:38:27.235Z,914.58
2019-02-28T11:39:27.554Z,914.57
2019-02-28T11:40:27.177Z,914.57
2019-02-28T11:41:27.155Z,914.59
2019-02-28T11:42:28.100Z,914.59
2019-02-28T11:43:27.063Z,914.57
2019-02-28T11:44:27.053Z,914.60
2019-02-28T11:45:27.021Z,914.61
2019-02-28T11:46:26.971Z,914.62
2019-02-28T11:47:26.967Z,914.59
2019-02-28T11:48:26.912Z,914.62
2019-02-28T11:49:28.655Z,914.63
2019-02-28T11:50:26.872Z,914.68
2019-02-28T11:51:26.831Z,914.63
2019-02-28T11:52:27.386Z,914.62
2019-02-28T11:53:26.943Z,914.64
2019-02-28T11:54:26.738Z,914.65
2019-02-28T11:55:27.152Z,914.67
2019-02-28T11:56:28.907Z,914.66
2019-02-28T11:57:26.655Z,914.70
2019-02-28T11:58:26.617Z,914.67
2019-02-28T11:59:26.789Z,914.70
2019-02-28T12:00:26.551Z,914.72
2019-02-28T12:01:26.556Z,914.73
2019-02-28T12:02:26.512Z,914.75
2019-02-28T12:03:26.486Z,914.73
2019-02-28T12:04:26.454Z,914.70
2019-02-28T12:05:26.455Z,914.71
2019-02-28T12:06:26.423Z,914.74
2019-02-28T12:07:26.345Z,914.72
2019-02-28T12:08:26.351Z,914.76
2019-02-28T12:09:26.363Z,914.74
2019-02-28T12:10:27.001Z,914.73
2019-02-28T12:11:26.221Z,914.76
2019-02-28T12:12:26.199Z,914.76
2019-02-28T12:13:26.167Z,914.76
2019-02-28T12:14:26.390Z,914.74
2019-02-28T12:15:26.097Z,914.68
2019-02-28T12:16:26.071Z,914.69
2019-02-28T12:17:28.534Z,914.70
2019-02-28T12:18:26.225Z,914.71
2019-02-28T12:19:25.980Z,914.72
2019-02-28T12:20:26.463Z,914.74
2019-02-28T12:21:26.121Z,914.73
2019-02-28T12:22:25.892Z,914.72
2019-02-28T12:23:25.844Z,914.73
2019-02-28T12:24:25.834Z,914.70
2019-02-28T12:25:25.802Z,914.71
2019-02-28T12:26:26.137Z,914.71
2019-02-28T12:27:27.562Z,914.68
2019-02-28T12:28:25.693Z,914.68
2019-02-28T12:29:25.682Z,914.66
2019-02-28T12:30:26.081Z,914.68
2019-02-28T12:31:25.633Z,914.66
2019-02-28T12:32:25.747Z,914.69
2019-02-28T12:33:25.570Z,914.69
2019-02-28T12:34:28.983Z,914.70
2019-02-28T12:35:25.514Z,914.74
2019-02-28T12:36:25.474Z,914.71